createdAt,value
2022-12-15T00:00:09.395Z,12.48
2022-12-15T00:03:31.711Z,9.90
2022-12-15T00:06:54.712Z,14.60
2022-12-15T00:10:16.251Z,13.07
2022-12-15T00:13:37.452Z,14.87
2022-12-15T00:17:01.026Z,12.23
2022-12-15T00:20:23.051Z,10.60
2022-12-15T00:23:44.923Z,14.75
2022-12-15T00:27:07.528Z,12.00
2022-12-15T00:30:30.575Z,15.07
2022-12-15T00:33:52.043Z,12.32
2022-12-15T00:37:14.076Z,9.32
2022-12-15T00:40:16.906Z,15.80
2022-12-15T00:43:19.800Z,15.55
2022-12-15T00:46:41.059Z,15.95
2022-12-15T00:50:02.965Z,15.27
2022-12-15T00:53:24.331Z,15.57
2022-12-15T00:56:46.421Z,12.10
2022-12-15T01:00:07.873Z,15.23
2022-12-15T01:03:38.484Z,15.55
2022-12-15T01:06:59.916Z,14.25
2022-12-15T01:10:21.671Z,16.17
2022-12-15T01:13:49.928Z,15.67
2022-12-15T01:17:11.573Z,16.05
2022-12-15T01:20:20.106Z,15.45
2022-12-15T01:23:23.094Z,14.65
2022-12-15T01:26:25.841Z,16.25
2022-12-15T01:29:28.835Z,10.88
2022-12-15T01:32:31.500Z,15.93
2022-12-15T01:35:35.212Z,16.52
2022-12-15T01:38:38.293Z,16.30
2022-12-15T01:41:42.328Z,16.10
2022-12-15T01:44:50.051Z,13.15
2022-12-15T01:47:55.630Z,14.93
2022-12-15T01:51:04.256Z,15.25
2022-12-15T01:54:13.675Z,16.73
2022-12-15T01:57:25.793Z,11.97
2022-12-15T02:00:29.920Z,14.87
2022-12-15T02:03:33.822Z,12.00
2022-12-15T02:06:37.153Z,14.70
2022-12-15T02:09:40.948Z,17.75
2022-12-15T02:13:04.021Z,11.77
2022-12-15T02:16:14.070Z,14.80
2022-12-15T02:19:38.566Z,14.10
2022-12-15T02:23:19.087Z,8.68
2022-12-15T02:27:02.287Z,17.33
2022-12-15T02:30:34.871Z,14.73
2022-12-15T02:34:00.535Z,16.85
2022-12-15T02:37:08.331Z,15.80
2022-12-15T02:40:11.936Z,13.13
2022-12-15T02:43:15.955Z,12.80
2022-12-15T02:46:42.258Z,14.68
2022-12-15T02:50:03.127Z,5.95
2022-12-15T02:53:24.367Z,11.82
2022-12-15T02:56:49.752Z,16.40
2022-12-15T03:00:00.861Z,15.87
2022-12-15T03:03:03.882Z,13.23
2022-12-15T03:06:07.284Z,12.88
2022-12-15T03:09:11.137Z,9.35
2022-12-15T03:12:14.128Z,10.18
2022-12-15T03:15:17.613Z,16.50
2022-12-15T03:18:21.117Z,13.43
2022-12-15T03:21:25.923Z,16.40
2022-12-15T03:24:30.270Z,15.80
2022-12-15T03:27:33.349Z,16.90
2022-12-15T03:30:36.359Z,17.00
2022-12-15T03:33:39.385Z,17.42
2022-12-15T03:36:42.391Z,17.40
2022-12-15T03:39:45.181Z,16.62
2022-12-15T03:42:48.724Z,16.70
2022-12-15T03:45:52.787Z,17.27
2022-12-15T03:48:55.935Z,17.33
2022-12-15T03:51:59.867Z,17.40
2022-12-15T03:55:04.040Z,17.77
2022-12-15T03:58:09.059Z,18.17
2022-12-15T04:01:19.270Z,20.03
2022-12-15T04:04:22.274Z,22.73
2022-12-15T04:07:25.028Z,19.92
2022-12-15T04:10:34.242Z,19.40
2022-12-15T04:13:37.597Z,18.05
2022-12-15T04:16:41.860Z,17.83
2022-12-15T04:20:02.892Z,16.60
2022-12-15T04:23:10.329Z,19.45
2022-12-15T04:26:33.044Z,20.12
2022-12-15T04:29:54.785Z,19.98
2022-12-15T04:33:16.429Z,19.60
2022-12-15T04:36:38.143Z,19.55
2022-12-15T04:40:02.859Z,18.60
2022-12-15T04:43:25.463Z,18.00
2022-12-15T04:46:48.368Z,24.30
2022-12-15T04:50:10.236Z,21.70
2022-12-15T04:53:35.120Z,20.00
2022-12-15T04:56:56.799Z,20.27
2022-12-15T05:00:17.889Z,17.25
2022-12-15T05:03:43.051Z,17.95
2022-12-15T05:07:04.680Z,18.73
2022-12-15T05:10:26.535Z,17.45
2022-12-15T05:13:47.895Z,19.10
2022-12-15T05:17:09.997Z,19.83
2022-12-15T05:20:31.506Z,17.37
2022-12-15T05:23:53.226Z,18.50
2022-12-15T05:27:14.378Z,18.12
2022-12-15T05:30:36.069Z,19.35
2022-12-15T05:33:39.099Z,19.98
2022-12-15T05:36:42.275Z,17.58
2022-12-15T05:39:45.889Z,19.77
2022-12-15T05:42:50.243Z,19.27
2022-12-15T05:45:54.555Z,21.95
2022-12-15T05:48:57.636Z,18.37
2022-12-15T05:52:00.374Z,18.77
2022-12-15T05:55:03.579Z,18.63
2022-12-15T05:58:06.214Z,21.65
2022-12-15T06:01:14.811Z,21.85
2022-12-15T06:04:17.915Z,21.62
2022-12-15T06:07:20.678Z,20.83
2022-12-15T06:10:23.864Z,20.23
2022-12-15T06:13:37.008Z,20.33
2022-12-15T06:16:50.259Z,19.83
2022-12-15T06:19:53.865Z,19.17
2022-12-15T06:22:57.565Z,20.48
2022-12-15T06:26:07.887Z,26.07
2022-12-15T06:29:12.581Z,23.48
2022-12-15T06:32:15.251Z,24.27
2022-12-15T06:35:18.362Z,22.25
2022-12-15T06:38:21.000Z,17.85
2022-12-15T06:41:24.868Z,19.97
2022-12-15T06:44:27.520Z,18.70
2022-12-15T06:47:30.950Z,20.05
2022-12-15T06:50:34.703Z,19.30
2022-12-15T06:53:41.379Z,18.90
2022-12-15T06:56:44.096Z,20.13
2022-12-15T06:59:47.076Z,25.12
2022-12-15T07:02:50.074Z,24.23
2022-12-15T07:06:05.612Z,24.42
2022-12-15T07:09:14.140Z,21.50
2022-12-15T07:12:17.215Z,20.63
2022-12-15T07:15:20.011Z,20.73
2022-12-15T07:18:23.009Z,21.95
2022-12-15T07:21:25.809Z,28.08
2022-12-15T07:24:29.208Z,24.30
2022-12-15T07:27:31.947Z,24.73
2022-12-15T07:30:38.970Z,28.40
2022-12-15T07:33:41.823Z,30.70
2022-12-15T07:36:51.587Z,28.90
2022-12-15T07:39:54.962Z,28.90
2022-12-15T07:42:58.094Z,23.73
2022-12-15T07:46:01.272Z,22.92
2022-12-15T07:49:04.325Z,26.90
2022-12-15T07:52:07.298Z,23.90
2022-12-15T07:55:10.285Z,27.85
2022-12-15T07:58:14.146Z,24.30
2022-12-15T08:01:18.843Z,23.70
2022-12-15T08:04:21.949Z,21.77
2022-12-15T08:07:25.701Z,19.17
2022-12-15T08:10:48.097Z,20.30
2022-12-15T08:14:10.647Z,19.97
2022-12-15T08:17:15.230Z,18.42
2022-12-15T08:20:18.197Z,18.30
2022-12-15T08:23:21.680Z,18.40
2022-12-15T08:26:30.070Z,17.95
2022-12-15T08:29:50.666Z,16.43
2022-12-15T08:32:55.153Z,19.63
2022-12-15T08:36:00.029Z,21.17
2022-12-15T08:39:03.977Z,26.02
2022-12-15T08:42:08.532Z,18.27
2022-12-15T08:45:12.832Z,19.17
2022-12-15T08:48:15.927Z,19.90
2022-12-15T08:51:21.488Z,18.58
2022-12-15T08:54:25.460Z,17.17
2022-12-15T08:57:29.260Z,19.33
2022-12-15T09:00:31.891Z,19.47
2022-12-15T09:03:38.941Z,20.30
2022-12-15T09:06:42.169Z,19.02
2022-12-15T09:09:45.231Z,20.20
2022-12-15T09:12:48.008Z,18.55
2022-12-15T09:16:10.309Z,22.73
2022-12-15T09:19:13.640Z,23.30
2022-12-15T09:22:16.689Z,23.98
2022-12-15T09:25:19.341Z,20.30
2022-12-15T09:28:22.264Z,21.05
2022-12-15T09:31:30.490Z,13.93
2022-12-15T09:34:33.868Z,20.10
2022-12-15T09:37:36.536Z,20.60
2022-12-15T09:40:40.598Z,19.95
2022-12-15T09:44:03.515Z,20.20
2022-12-15T09:47:28.069Z,20.90
2022-12-15T09:50:41.281Z,20.67
2022-12-15T09:53:54.853Z,10.70
2022-12-15T09:57:03.046Z,20.92
2022-12-15T10:00:12.237Z,18.00
2022-12-15T10:03:53.234Z,21.97
2022-12-15T10:07:06.518Z,12.60
2022-12-15T10:10:30.161Z,13.60
2022-12-15T10:13:52.898Z,18.62
2022-12-15T10:17:16.053Z,18.65
2022-12-15T10:20:22.688Z,16.60
2022-12-15T10:23:26.007Z,21.47
2022-12-15T10:26:34.273Z,20.10
2022-12-15T10:29:44.793Z,12.82
2022-12-15T10:33:22.911Z,16.00
2022-12-15T10:36:27.634Z,10.87
2022-12-15T10:39:44.610Z,19.40
2022-12-15T10:42:50.162Z,15.18
2022-12-15T10:46:22.331Z,8.98
2022-12-15T10:49:25.577Z,15.55
2022-12-15T10:52:37.981Z,14.30
2022-12-15T10:55:49.765Z,13.53
2022-12-15T10:58:56.875Z,15.75
2022-12-15T11:02:23.518Z,11.35
2022-12-15T11:05:28.027Z,20.98
2022-12-15T11:08:32.195Z,11.57
2022-12-15T11:12:04.511Z,14.73
2022-12-15T11:15:22.649Z,11.75
2022-12-15T11:18:53.943Z,11.82
2022-12-15T11:22:01.611Z,15.70
2022-12-15T11:25:29.458Z,14.57
2022-12-15T11:28:46.115Z,18.08
2022-12-15T11:31:54.795Z,18.58
2022-12-15T11:34:59.377Z,15.10
2022-12-15T11:38:23.449Z,15.95
2022-12-15T11:41:45.011Z,19.27
2022-12-15T11:44:56.797Z,11.77
2022-12-15T11:48:19.678Z,17.73
2022-12-15T11:51:47.191Z,11.82
2022-12-15T11:55:02.515Z,18.83
2022-12-15T11:58:23.331Z,18.83
2022-12-15T12:01:26.316Z,22.73
2022-12-15T12:04:41.080Z,22.90
2022-12-15T12:08:00.043Z,12.57
2022-12-15T12:11:14.456Z,18.27
2022-12-15T12:14:17.240Z,19.87
2022-12-15T12:17:27.473Z,19.25
2022-12-15T12:20:43.840Z,19.15
2022-12-15T12:24:10.131Z,10.25
2022-12-15T12:27:33.991Z,21.17
2022-12-15T12:30:46.278Z,20.33
2022-12-15T12:33:58.971Z,16.70
2022-12-15T12:37:16.707Z,21.70
2022-12-15T12:40:40.914Z,16.17
2022-12-15T12:43:52.820Z,18.02
2022-12-15T12:46:58.836Z,19.93
2022-12-15T12:50:12.557Z,18.90
2022-12-15T12:53:35.241Z,16.62
2022-12-15T12:56:45.606Z,21.80
2022-12-15T13:00:01.222Z,19.75
2022-12-15T13:03:11.132Z,21.10
2022-12-15T13:06:39.806Z,22.33
2022-12-15T13:09:44.001Z,20.90
2022-12-15T13:12:53.259Z,21.77
2022-12-15T13:16:25.944Z,23.33
2022-12-15T13:19:56.747Z,14.50
2022-12-15T13:23:21.782Z,22.50
2022-12-15T13:26:31.638Z,21.00
2022-12-15T13:29:36.056Z,21.23
2022-12-15T13:32:41.504Z,14.90
2022-12-15T13:35:44.987Z,22.77
2022-12-15T13:38:55.544Z,20.00
2022-12-15T13:42:32.509Z,23.05
2022-12-15T13:45:38.505Z,18.70
2022-12-15T13:48:54.007Z,25.70
2022-12-15T13:53:08.094Z,25.83
2022-12-15T13:55:57.592Z,38.20
2022-12-15T13:59:12.698Z,43.05
2022-12-15T14:02:30.605Z,32.30
2022-12-15T14:05:33.940Z,24.58
2022-12-15T14:08:36.843Z,24.50
2022-12-15T14:11:57.565Z,24.73
2022-12-15T14:15:00.588Z,24.90
2022-12-15T14:18:03.725Z,26.25
2022-12-15T14:21:19.640Z,22.90
2022-12-15T14:24:38.606Z,22.53
2022-12-15T14:27:43.860Z,24.90
2022-12-15T14:34:18.020Z,24.70
2022-12-15T14:37:21.500Z,25.27
2022-12-15T14:40:28.974Z,25.53
2022-12-15T14:43:37.034Z,21.48
2022-12-15T14:46:45.614Z,24.50
2022-12-15T14:49:49.448Z,25.98
2022-12-15T14:52:58.176Z,24.65
2022-12-15T14:56:31.294Z,23.13
2022-12-15T14:59:35.836Z,26.50
2022-12-15T15:02:38.910Z,24.55
2022-12-15T15:03:16.631Z,25.67
2022-12-15T15:05:47.089Z,22.98
2022-12-15T15:08:52.903Z,21.65
2022-12-15T15:12:09.168Z,24.50
2022-12-15T15:15:17.956Z,23.80
2022-12-15T15:18:25.353Z,22.00
2022-12-15T15:21:30.422Z,23.17
2022-12-15T15:24:37.649Z,23.00
2022-12-15T15:27:40.611Z,23.17
2022-12-15T15:31:05.457Z,22.13
2022-12-15T15:34:08.788Z,23.15
2022-12-15T15:37:20.772Z,24.80
2022-12-15T15:40:24.874Z,27.02
2022-12-15T15:43:29.369Z,26.97
2022-12-15T15:46:36.010Z,23.90
2022-12-15T15:49:39.590Z,24.12
2022-12-15T15:52:45.154Z,27.73
2022-12-15T15:55:50.707Z,30.60
2022-12-15T15:58:53.928Z,30.37
2022-12-15T16:01:57.911Z,31.65
2022-12-15T16:05:01.050Z,29.60
2022-12-15T16:08:05.142Z,27.27
2022-12-15T16:11:12.096Z,26.45
2022-12-15T16:14:16.888Z,27.63
2022-12-15T16:17:22.209Z,35.25
2022-12-15T16:20:28.075Z,48.22
2022-12-15T16:23:31.092Z,38.30
2022-12-15T16:26:34.258Z,42.45
2022-12-15T16:29:37.481Z,29.90
2022-12-15T16:32:40.147Z,29.08
2022-12-15T16:35:44.632Z,28.67
2022-12-15T16:38:47.491Z,29.90
2022-12-15T16:41:52.870Z,35.53
2022-12-15T16:44:55.635Z,46.90
2022-12-15T16:47:58.928Z,37.20
2022-12-15T16:51:02.810Z,62.35
2022-12-15T16:54:07.391Z,51.42
2022-12-15T16:57:12.346Z,54.10
2022-12-15T17:00:25.069Z,47.43
2022-12-15T17:03:28.652Z,40.00
2022-12-15T17:06:32.602Z,40.17
2022-12-15T17:09:38.147Z,39.05
2022-12-15T17:12:41.570Z,38.25
2022-12-15T17:15:44.348Z,37.17
2022-12-15T17:18:49.703Z,41.42
2022-12-15T17:21:54.257Z,38.70
2022-12-15T17:24:57.226Z,40.20
2022-12-15T17:28:00.776Z,34.53
2022-12-15T17:31:04.463Z,34.87
2022-12-15T17:34:22.838Z,35.78
2022-12-15T17:37:29.268Z,34.25
2022-12-15T17:40:36.474Z,34.88
2022-12-15T17:43:40.840Z,34.13
2022-12-15T17:46:44.199Z,35.20
2022-12-15T17:49:47.658Z,21.37
2022-12-15T17:52:50.660Z,29.85
2022-12-15T17:55:55.944Z,28.65
2022-12-15T17:58:59.148Z,20.62
2022-12-15T18:02:02.482Z,27.77
2022-12-15T18:05:06.672Z,27.37
2022-12-15T18:08:27.955Z,25.30
2022-12-15T18:11:31.128Z,24.25
2022-12-15T18:14:35.440Z,24.55
2022-12-15T18:17:44.593Z,27.20
2022-12-15T18:20:49.735Z,21.95
2022-12-15T18:27:22.161Z,22.73
2022-12-15T18:30:27.302Z,25.20
2022-12-15T18:33:31.277Z,26.00
2022-12-15T18:36:37.734Z,24.65
2022-12-15T18:39:41.925Z,24.65
2022-12-15T18:42:47.937Z,26.02
2022-12-15T18:45:53.691Z,27.37
2022-12-15T18:48:57.369Z,27.03
2022-12-15T18:52:01.631Z,28.95
2022-12-15T18:55:16.637Z,26.75
2022-12-15T18:58:24.872Z,25.23
2022-12-15T19:01:28.768Z,25.65
2022-12-15T19:04:32.279Z,26.33
2022-12-15T19:07:37.946Z,25.05
2022-12-15T19:10:50.426Z,26.20
2022-12-15T19:13:54.089Z,25.10
2022-12-15T19:17:16.640Z,25.40
2022-12-15T19:20:39.692Z,24.50
2022-12-15T19:23:42.803Z,25.30
2022-12-15T19:26:46.153Z,23.65
2022-12-15T19:29:52.304Z,25.98
2022-12-15T19:32:56.556Z,26.80
2022-12-15T19:35:59.725Z,27.03
2022-12-15T19:39:04.045Z,23.70
2022-12-15T19:42:19.145Z,27.62
2022-12-15T19:45:26.447Z,25.83
2022-12-15T19:48:30.418Z,29.95
2022-12-15T19:51:36.639Z,25.57
2022-12-15T19:54:40.774Z,25.23
2022-12-15T19:57:45.993Z,28.95
2022-12-15T20:00:50.622Z,28.60
2022-12-15T20:03:56.716Z,30.10
2022-12-15T20:07:03.474Z,26.60
2022-12-15T20:10:27.859Z,26.47
2022-12-15T20:13:35.205Z,27.25
2022-12-15T20:16:38.950Z,25.00
2022-12-15T20:19:43.886Z,22.52
2022-12-15T20:22:54.087Z,18.90
2022-12-15T20:25:58.503Z,8.75
2022-12-15T20:29:04.955Z,5.97
2022-12-15T20:32:18.023Z,11.93
2022-12-15T20:35:23.443Z,12.37
2022-12-15T20:38:34.551Z,10.43
2022-12-15T20:41:38.513Z,15.37
2022-12-15T20:44:44.653Z,18.92
2022-12-15T20:47:50.178Z,22.13
2022-12-15T20:50:54.596Z,22.37
2022-12-15T20:54:01.581Z,22.20
2022-12-15T20:57:05.077Z,16.37
2022-12-15T21:00:10.741Z,21.30
2022-12-15T21:03:29.035Z,20.60
2022-12-15T21:06:32.826Z,19.40
2022-12-15T21:09:36.214Z,19.97
2022-12-15T21:12:40.964Z,20.07
2022-12-15T21:15:43.886Z,18.85
2022-12-15T21:19:19.897Z,17.48
2022-12-15T21:22:28.720Z,18.12
2022-12-15T21:25:32.186Z,20.00
2022-12-15T21:28:35.047Z,21.02
2022-12-15T21:31:39.141Z,19.52
2022-12-15T21:34:43.064Z,21.37
2022-12-15T21:37:51.841Z,21.00
2022-12-15T21:41:07.884Z,18.70
2022-12-15T21:44:14.719Z,20.37
2022-12-15T21:47:47.734Z,19.30
2022-12-15T21:50:52.119Z,19.10
2022-12-15T21:53:55.082Z,19.67
2022-12-15T21:56:59.532Z,20.03
2022-12-15T22:00:17.928Z,16.37
2022-12-15T22:03:20.894Z,15.05
2022-12-15T22:06:29.046Z,18.92
2022-12-15T22:09:32.013Z,17.42
2022-12-15T22:12:34.823Z,16.67
2022-12-15T22:15:37.858Z,16.73
2022-12-15T22:18:40.537Z,18.35
2022-12-15T22:21:44.697Z,20.45
2022-12-15T22:24:48.819Z,18.60
2022-12-15T22:27:55.068Z,18.63
2022-12-15T22:30:58.480Z,20.10
2022-12-15T22:34:01.659Z,17.90
2022-12-15T22:37:04.320Z,16.45
2022-12-15T22:40:07.770Z,17.20
2022-12-15T22:43:56.962Z,16.80
2022-12-15T22:47:02.746Z,15.67
2022-12-15T22:50:06.235Z,15.18
2022-12-15T22:53:14.777Z,17.62
2022-12-15T22:56:24.892Z,16.60
2022-12-15T22:59:35.764Z,15.27
2022-12-15T23:02:43.159Z,16.23
2022-12-15T23:05:47.766Z,16.48
2022-12-15T23:08:55.898Z,16.10
2022-12-15T23:11:59.413Z,15.23
2022-12-15T23:15:21.843Z,15.73
2022-12-15T23:18:25.004Z,13.20
2022-12-15T23:21:28.390Z,15.30
2022-12-15T23:24:31.500Z,14.82
2022-12-15T23:27:34.216Z,13.98
2022-12-15T23:30:37.308Z,13.43
2022-12-15T23:33:41.341Z,13.20
2022-12-15T23:36:44.641Z,10.52
2022-12-15T23:39:47.335Z,11.82
2022-12-15T23:42:51.399Z,11.27
2022-12-15T23:46:02.316Z,11.23
2022-12-15T23:49:05.273Z,11.53
2022-12-15T23:52:08.640Z,13.40
2022-12-15T23:55:11.991Z,10.32
2022-12-15T23:58:14.735Z,10.95
